Kenyon, MN

5:25 AM CDT on October 23, 2014 (GMT -0500)
Owatonna Degner Regional | Change Station
CLOSE
Current Station
Airport
Location: Owatonna,
Elevation: 1145 ft
Nearby Weather Stations

Elev 1145 ft 44.12 °N, 93.26 °W | Updated 10 minutes ago

Rain
Rain
50 °F
Feels Like 50 °F
N
9
Wind Variable Wind from South

Today
High -- | Low -- °F
--% Chance of Precip.
Yesterday
High -- | Low -- °F
Precip. -- in
7:37 AM 6:14 PM
Waning Crescent, 0% visible
Pressure 30.02 in
Visibility 7.0 miles
Clouds Mostly Cloudy 1600 ft
Mostly Cloudy 2100 ft
Dew Point 46 °F
Humidity 87%
Rainfall 0.26 in
Snow Depth Not available.
UV 0 out of 12
Pollen 1.70 out of 12
Ozone Good
PM2.5 Good
Flu Activity Sporadic
METAR KOWA 231015Z AUTO 17008KT 7SM DZ BKN016 BKN021 10/08 A3002 RMK AO2

More Conditions Fewer Conditions

Pressure 30.02 in
Visibility 7.0 miles
Clouds Mostly Cloudy 1600 ft
Mostly Cloudy 2100 ft
Dew Point 46 °F
Humidity 87%
Rainfall 0.26 in
Snow Depth Not available.
UV 0 out of 12
Pollen 1.70 out of 12
Ozone Good
PM2.5 Good
Flu Activity Sporadic
METAR KOWA 231015Z AUTO 17008KT 7SM DZ BKN016 BKN021 10/08 A3002 RMK AO2

More Conditions Fewer Conditions

10-Day Weather Forecast

Almanac

Astronomy

Oct. 23, 2014 Rise Set
Actual Time 7:37 AM CDT 6:14 PM CDT
Civil Twilight 7:07 AM CDT 6:44 PM CDT
Nautical Twilight 6:33 AM CDT 7:18 PM CDT
Astronomical Twilight 6:00 AM CDT 7:51 PM CDT
Moon 7:16 AM CDT 6:16 PM CDT
Length of Visible Light 11h 36m
Length of Day
10h 37m
Tomorrow will be 2m 51s shorter.
Waning Crescent, 0% of the Moon is Illuminated
Today
Waning Crescent
Oct 23
New
Oct 30
First Quarter
Nov 6
Full
Nov 14
Last Quarter

Today's Extremes

State Highs State Lows

Community

WunderPhotos

Upload Photos

1,764,202 photos uploaded!

Nearby

Air Quality

  Air Quality AQ Index Pollutant
Yesterday Good
PM2.5
Yesterday Good
OZONE
Current Good
PM2.5
Current Good
OZONE
Thursday Good
PM2.5
Friday Good
PM2.5
Saturday Good
PM2.5
Sunday Moderate
PM2.5
Monday Moderate
PM2.5

Snow Depth

Station Depth Elevation
No new snow has been reported.

Earthquake Activity

City Distance Mag. Time & Date
No recent earthquake activity has been reported nearby.
Minimum magnitude displayed is 2.5.

Coastal Water Temperatures

Place Temperature
No Stations Reporting

Nearby Weather Stations